createdAt,value
2024-01-25T00:07:46.870Z,19.40
2024-01-25T00:17:46.478Z,16.80
2024-01-25T00:27:46.230Z,16.80
2024-01-25T00:37:45.702Z,14.80
2024-01-25T00:47:48.185Z,20.10
2024-01-25T00:57:44.963Z,24.80
2024-01-25T01:07:44.619Z,16.00
2024-01-25T01:17:44.199Z,23.50
2024-01-25T01:27:43.967Z,16.50
2024-01-25T01:37:43.371Z,16.40
2024-01-25T01:47:43.156Z,18.70
2024-01-25T01:57:42.673Z,18.80
2024-01-25T02:07:42.410Z,21.40
2024-01-25T02:17:42.030Z,16.20
2024-01-25T02:27:41.533Z,20.90
2024-01-25T02:37:41.169Z,17.10
2024-01-25T02:47:40.845Z,16.80
2024-01-25T02:57:40.418Z,20.40
2024-01-25T03:07:46.423Z,21.50
2024-01-25T03:17:39.650Z,15.80
2024-01-25T03:27:39.257Z,17.40
2024-01-25T03:37:38.888Z,21.40
2024-01-25T03:47:38.490Z,20.70
2024-01-25T03:57:38.389Z,21.90
2024-01-25T04:07:37.810Z,16.40
2024-01-25T04:17:37.371Z,14.70
2024-01-25T04:27:37.018Z,23.70
2024-01-25T04:37:36.653Z,16.50
2024-01-25T04:47:36.253Z,17.60
2024-01-25T04:57:36.042Z,18.60
2024-01-25T05:07:35.744Z,17.00
2024-01-25T05:17:35.593Z,19.30
2024-01-25T05:27:34.681Z,20.60
2024-01-25T05:37:34.359Z,20.00
2024-01-25T05:47:34.056Z,21.00
2024-01-25T05:57:33.673Z,26.20
2024-01-25T06:07:33.283Z,19.70
2024-01-25T06:17:32.864Z,20.10
2024-01-25T06:27:33.403Z,25.40
2024-01-25T06:37:32.215Z,25.30
2024-01-25T06:47:31.658Z,24.70
2024-01-25T06:57:31.615Z,24.60
2024-01-25T07:07:30.914Z,30.10
2024-01-25T07:17:30.555Z,26.30
2024-01-25T07:27:30.232Z,27.60
2024-01-25T07:37:29.764Z,28.20
2024-01-25T07:47:29.325Z,26.30
2024-01-25T07:57:28.980Z,31.70
2024-01-25T08:07:28.604Z,27.60
2024-01-25T08:17:28.494Z,22.20
2024-01-25T08:27:27.817Z,20.00
2024-01-25T08:37:22.435Z,24.40
2024-01-25T08:47:21.981Z,24.90
2024-01-25T08:57:21.587Z,25.40
2024-01-25T09:07:21.297Z,23.80
2024-01-25T09:17:20.830Z,24.00
2024-01-25T09:27:20.466Z,23.90
2024-01-25T09:37:20.105Z,28.70
2024-01-25T09:47:19.734Z,24.30
2024-01-25T09:57:19.354Z,27.50
2024-01-25T10:07:19.188Z,29.00
2024-01-25T10:17:18.635Z,23.50
2024-01-25T10:27:18.208Z,23.50
2024-01-25T10:37:18.128Z,27.80
2024-01-25T10:47:17.434Z,23.20
2024-01-25T10:57:17.059Z,22.70
2024-01-25T11:07:16.795Z,20.70
2024-01-25T11:17:16.313Z,23.60
2024-01-25T11:27:16.150Z,20.70
2024-01-25T11:37:15.746Z,24.50
2024-01-25T11:47:20.194Z,25.00
2024-01-25T11:57:14.844Z,25.50
2024-01-25T12:07:14.474Z,24.30
2024-01-25T12:17:14.347Z,25.40
2024-01-25T12:27:13.729Z,23.90
2024-01-25T12:37:13.383Z,21.10
2024-01-25T12:47:12.958Z,21.30
2024-01-25T12:57:12.595Z,25.40
2024-01-25T13:07:12.235Z,22.40
2024-01-25T13:17:11.825Z,27.80
2024-01-25T13:27:11.467Z,21.90
2024-01-25T13:37:11.236Z,25.90
2024-01-25T13:47:10.819Z,25.30
2024-01-25T13:57:10.305Z,17.80
2024-01-25T14:07:10.036Z,24.10
2024-01-25T14:17:09.547Z,21.20
2024-01-25T14:27:09.459Z,21.40
2024-01-25T14:37:08.789Z,20.40
2024-01-25T14:47:08.429Z,23.50
2024-01-25T14:57:08.047Z,17.60
2024-01-25T15:07:07.694Z,19.30
2024-01-25T15:17:07.269Z,16.80
2024-01-25T15:27:06.939Z,14.10
2024-01-25T15:37:06.548Z,15.30
2024-01-25T15:47:06.180Z,20.30
2024-01-25T15:57:05.758Z,17.80
2024-01-25T16:07:05.421Z,20.60
2024-01-25T16:17:04.993Z,16.00
2024-01-25T16:27:04.646Z,15.20
2024-01-25T16:37:04.222Z,18.70
2024-01-25T16:47:03.891Z,15.60
2024-01-25T16:57:03.494Z,16.40
2024-01-25T17:07:03.250Z,13.50
2024-01-25T17:17:07.889Z,15.90
2024-01-25T17:27:02.413Z,15.10
2024-01-25T17:37:02.018Z,19.30
2024-01-25T17:47:01.637Z,17.10
2024-01-25T17:57:01.230Z,17.70
2024-01-25T18:07:00.891Z,13.50
2024-01-25T18:17:00.484Z,15.90
2024-01-25T18:27:00.141Z,14.00
2024-01-25T18:36:59.754Z,18.40
2024-01-25T18:46:59.370Z,12.60
2024-01-25T18:56:58.967Z,13.20
2024-01-25T19:06:58.657Z,16.00
2024-01-25T19:16:58.255Z,16.10
2024-01-25T19:26:57.897Z,11.70
2024-01-25T19:37:07.464Z,10.90
2024-01-25T19:46:57.119Z,11.00
2024-01-25T19:56:56.726Z,9.70
2024-01-25T20:06:56.427Z,42.60
2024-01-25T20:16:55.987Z,9.50
2024-01-25T20:26:55.650Z,9.00
2024-01-25T20:36:55.366Z,8.50
2024-01-25T20:46:54.856Z,9.60
2024-01-25T20:56:54.467Z,9.60
2024-01-25T21:06:54.111Z,10.50
2024-01-25T21:16:53.720Z,11.80
2024-01-25T21:26:53.319Z,9.20
2024-01-25T21:36:53.011Z,8.40
2024-01-25T21:46:52.556Z,8.00
2024-01-25T21:56:52.228Z,9.40
2024-01-25T22:06:51.820Z,8.20
2024-01-25T22:16:51.455Z,9.00
2024-01-25T22:26:51.114Z,8.00
2024-01-25T22:36:50.715Z,6.90
2024-01-25T22:46:53.757Z,7.70
2024-01-25T22:56:49.977Z,6.60
2024-01-25T23:06:50.271Z,7.40
2024-01-25T23:16:49.228Z,7.10
2024-01-25T23:26:48.906Z,7.40
2024-01-25T23:36:48.518Z,7.20
2024-01-25T23:46:48.141Z,6.50
2024-01-25T23:56:47.759Z,6.20
